sensor_id;sensor_type;location;lat;lon;timestamp;P1;durP1;ratioP1;P2;durP2;ratioP2
27265;SDS011;14766;51.380;13.762;2023-08-20T00:01:30;10.52;;;9.63;;
27265;SDS011;14766;51.380;13.762;2023-08-20T00:03:58;10.70;;;9.70;;
27265;SDS011;14766;51.380;13.762;2023-08-20T00:06:25;10.57;;;9.68;;
27265;SDS011;14766;51.380;13.762;2023-08-20T00:08:54;10.50;;;9.38;;
27265;SDS011;14766;51.380;13.762;2023-08-20T00:11:21;10.15;;;9.25;;
27265;SDS011;14766;51.380;13.762;2023-08-20T00:13:49;10.82;;;9.80;;
27265;SDS011;14766;51.380;13.762;2023-08-20T00:16:16;10.52;;;9.57;;
27265;SDS011;14766;51.380;13.762;2023-08-20T00:18:43;11.10;;;10.00;;
27265;SDS011;14766;51.380;13.762;2023-08-20T00:21:10;10.70;;;9.73;;
27265;SDS011;14766;51.380;13.762;2023-08-20T00:23:37;11.20;;;10.07;;
27265;SDS011;14766;51.380;13.762;2023-08-20T00:26:05;9.88;;;8.88;;
27265;SDS011;14766;51.380;13.762;2023-08-20T00:28:32;10.25;;;9.25;;
27265;SDS011;14766;51.380;13.762;2023-08-20T00:31:02;10.10;;;9.05;;
27265;SDS011;14766;51.380;13.762;2023-08-20T00:33:29;11.57;;;10.40;;
27265;SDS011;14766;51.380;13.762;2023-08-20T00:35:58;10.93;;;9.82;;
27265;SDS011;14766;51.380;13.762;2023-08-20T00:38:25;10.00;;;9.00;;
27265;SDS011;14766;51.380;13.762;2023-08-20T00:40:53;10.43;;;9.43;;
27265;SDS011;14766;51.380;13.762;2023-08-20T00:43:20;9.88;;;8.90;;
27265;SDS011;14766;51.380;13.762;2023-08-20T00:45:48;10.25;;;9.25;;
27265;SDS011;14766;51.380;13.762;2023-08-20T00:48:16;10.50;;;9.55;;
27265;SDS011;14766;51.380;13.762;2023-08-20T00:50:43;10.60;;;9.57;;
27265;SDS011;14766;51.380;13.762;2023-08-20T00:53:13;10.32;;;9.43;;
27265;SDS011;14766;51.380;13.762;2023-08-20T00:55:41;11.32;;;10.30;;
27265;SDS011;14766;51.380;13.762;2023-08-20T00:58:10;10.77;;;9.77;;
27265;SDS011;14766;51.380;13.762;2023-08-20T01:00:38;12.05;;;9.75;;
27265;SDS011;14766;51.380;13.762;2023-08-20T01:03:05;10.43;;;9.38;;
27265;SDS011;14766;51.380;13.762;2023-08-20T01:05:33;11.52;;;9.50;;
27265;SDS011;14766;51.380;13.762;2023-08-20T01:10:57;9.40;;;8.52;;
27265;SDS011;14766;51.380;13.762;2023-08-20T01:13:36;10.55;;;9.57;;
27265;SDS011;14766;51.380;13.762;2023-08-20T01:16:03;9.95;;;9.15;;
27265;SDS011;14766;51.380;13.762;2023-08-20T01:18:31;11.15;;;10.05;;
27265;SDS011;14766;51.380;13.762;2023-08-20T01:21:02;10.45;;;9.45;;
27265;SDS011;14766;51.380;13.762;2023-08-20T01:26:35;10.52;;;9.52;;
27265;SDS011;14766;51.380;13.762;2023-08-20T01:29:11;10.68;;;9.60;;
27265;SDS011;14766;51.380;13.762;2023-08-20T01:31:40;11.98;;;9.80;;
27265;SDS011;14766;51.380;13.762;2023-08-20T01:34:07;10.60;;;9.60;;
27265;SDS011;14766;51.380;13.762;2023-08-20T01:36:34;10.10;;;9.02;;
27265;SDS011;14766;51.380;13.762;2023-08-20T01:39:01;10.57;;;9.57;;
27265;SDS011;14766;51.380;13.762;2023-08-20T01:41:30;10.73;;;9.73;;
27265;SDS011;14766;51.380;13.762;2023-08-20T01:43:59;10.05;;;9.07;;
27265;SDS011;14766;51.380;13.762;2023-08-20T01:46:27;10.60;;;9.60;;
27265;SDS011;14766;51.380;13.762;2023-08-20T01:48:54;10.73;;;9.65;;
27265;SDS011;14766;51.380;13.762;2023-08-20T01:51:21;9.73;;;8.75;;
27265;SDS011;14766;51.380;13.762;2023-08-20T01:53:49;9.45;;;8.55;;
27265;SDS011;14766;51.380;13.762;2023-08-20T01:56:17;9.75;;;8.85;;
27265;SDS011;14766;51.380;13.762;2023-08-20T01:58:45;9.90;;;8.93;;
27265;SDS011;14766;51.380;13.762;2023-08-20T02:01:14;9.73;;;8.73;;
27265;SDS011;14766;51.380;13.762;2023-08-20T02:03:42;10.35;;;9.35;;
27265;SDS011;14766;51.380;13.762;2023-08-20T02:06:09;9.82;;;8.82;;
27265;SDS011;14766;51.380;13.762;2023-08-20T02:08:36;10.45;;;9.20;;
27265;SDS011;14766;51.380;13.762;2023-08-20T02:11:03;9.55;;;8.57;;
27265;SDS011;14766;51.380;13.762;2023-08-20T02:13:31;9.52;;;8.52;;
27265;SDS011;14766;51.380;13.762;2023-08-20T02:16:00;9.18;;;8.27;;
27265;SDS011;14766;51.380;13.762;2023-08-20T02:18:28;9.65;;;8.75;;
27265;SDS011;14766;51.380;13.762;2023-08-20T02:20:56;10.45;;;8.50;;
27265;SDS011;14766;51.380;13.762;2023-08-20T02:23:24;9.25;;;8.35;;
27265;SDS011;14766;51.380;13.762;2023-08-20T02:25:51;9.48;;;8.48;;
27265;SDS011;14766;51.380;13.762;2023-08-20T02:28:20;10.00;;;8.38;;
27265;SDS011;14766;51.380;13.762;2023-08-20T02:30:49;9.25;;;8.13;;
27265;SDS011;14766;51.380;13.762;2023-08-20T02:33:16;8.60;;;7.78;;
27265;SDS011;14766;51.380;13.762;2023-08-20T02:35:43;9.45;;;8.13;;
27265;SDS011;14766;51.380;13.762;2023-08-20T02:38:10;8.70;;;7.80;;
27265;SDS011;14766;51.380;13.762;2023-08-20T02:40:39;9.07;;;8.02;;
27265;SDS011;14766;51.380;13.762;2023-08-20T02:43:08;8.43;;;7.60;;
27265;SDS011;14766;51.380;13.762;2023-08-20T02:45:42;8.73;;;7.82;;
27265;SDS011;14766;51.380;13.762;2023-08-20T02:48:10;7.88;;;7.07;;
27265;SDS011;14766;51.380;13.762;2023-08-20T02:50:38;8.02;;;7.22;;
27265;SDS011;14766;51.380;13.762;2023-08-20T02:53:06;7.85;;;7.05;;
27265;SDS011;14766;51.380;13.762;2023-08-20T02:55:35;8.85;;;6.88;;
27265;SDS011;14766;51.380;13.762;2023-08-20T02:58:02;7.03;;;6.32;;
27265;SDS011;14766;51.380;13.762;2023-08-20T03:00:35;8.77;;;6.88;;
27265;SDS011;14766;51.380;13.762;2023-08-20T03:03:03;8.23;;;7.10;;
27265;SDS011;14766;51.380;13.762;2023-08-20T03:05:35;9.10;;;6.88;;
27265;SDS011;14766;51.380;13.762;2023-08-20T03:08:02;6.60;;;6.00;;
27265;SDS011;14766;51.380;13.762;2023-08-20T03:10:32;8.18;;;7.35;;
27265;SDS011;14766;51.380;13.762;2023-08-20T03:13:01;8.50;;;7.18;;
27265;SDS011;14766;51.380;13.762;2023-08-20T03:15:30;8.55;;;6.93;;
27265;SDS011;14766;51.380;13.762;2023-08-20T03:17:57;8.23;;;7.07;;
27265;SDS011;14766;51.380;13.762;2023-08-20T03:20:25;10.60;;;7.63;;
27265;SDS011;14766;51.380;13.762;2023-08-20T03:22:53;8.93;;;7.53;;
27265;SDS011;14766;51.380;13.762;2023-08-20T03:25:20;7.78;;;6.97;;
27265;SDS011;14766;51.380;13.762;2023-08-20T03:27:47;9.30;;;7.63;;
27265;SDS011;14766;51.380;13.762;2023-08-20T03:30:16;9.55;;;7.32;;
27265;SDS011;14766;51.380;13.762;2023-08-20T03:32:44;8.85;;;7.90;;
27265;SDS011;14766;51.380;13.762;2023-08-20T03:35:11;8.40;;;7.50;;
27265;SDS011;14766;51.380;13.762;2023-08-20T03:37:38;8.82;;;7.57;;
27265;SDS011;14766;51.380;13.762;2023-08-20T03:40:05;9.85;;;8.07;;
27265;SDS011;14766;51.380;13.762;2023-08-20T03:42:33;8.55;;;7.75;;
27265;SDS011;14766;51.380;13.762;2023-08-20T03:45:00;9.65;;;8.65;;
27265;SDS011;14766;51.380;13.762;2023-08-20T03:47:27;12.57;;;8.65;;
27265;SDS011;14766;51.380;13.762;2023-08-20T03:49:54;9.23;;;8.32;;
27265;SDS011;14766;51.380;13.762;2023-08-20T03:52:21;8.80;;;8.00;;
27265;SDS011;14766;51.380;13.762;2023-08-20T03:54:48;8.82;;;7.82;;
27265;SDS011;14766;51.380;13.762;2023-08-20T03:57:17;9.52;;;8.60;;
27265;SDS011;14766;51.380;13.762;2023-08-20T03:59:44;10.25;;;8.90;;
27265;SDS011;14766;51.380;13.762;2023-08-20T04:02:12;9.93;;;9.02;;
27265;SDS011;14766;51.380;13.762;2023-08-20T04:04:40;9.88;;;8.88;;
27265;SDS011;14766;51.380;13.762;2023-08-20T04:07:08;10.13;;;9.15;;
27265;SDS011;14766;51.380;13.762;2023-08-20T04:09:36;9.05;;;8.18;;
27265;SDS011;14766;51.380;13.762;2023-08-20T04:12:05;12.70;;;9.38;;
27265;SDS011;14766;51.380;13.762;2023-08-20T04:14:32;9.73;;;8.80;;
27265;SDS011;14766;51.380;13.762;2023-08-20T04:16:59;9.55;;;8.63;;
27265;SDS011;14766;51.380;13.762;2023-08-20T04:19:26;10.15;;;9.25;;
27265;SDS011;14766;51.380;13.762;2023-08-20T04:21:53;10.32;;;9.23;;
27265;SDS011;14766;51.380;13.762;2023-08-20T04:24:20;9.73;;;8.63;;
27265;SDS011;14766;51.380;13.762;2023-08-20T04:26:48;9.70;;;8.80;;
27265;SDS011;14766;51.380;13.762;2023-08-20T04:29:21;10.27;;;9.27;;
27265;SDS011;14766;51.380;13.762;2023-08-20T04:31:50;11.45;;;9.13;;
27265;SDS011;14766;51.380;13.762;2023-08-20T04:34:18;11.68;;;9.93;;
27265;SDS011;14766;51.380;13.762;2023-08-20T04:36:49;10.68;;;9.68;;
27265;SDS011;14766;51.380;13.762;2023-08-20T04:39:19;10.55;;;9.48;;
27265;SDS011;14766;51.380;13.762;2023-08-20T04:41:51;9.82;;;8.82;;
27265;SDS011;14766;51.380;13.762;2023-08-20T04:44:20;10.10;;;9.10;;
27265;SDS011;14766;51.380;13.762;2023-08-20T04:46:48;10.13;;;9.10;;
27265;SDS011;14766;51.380;13.762;2023-08-20T04:49:16;10.93;;;9.80;;
27265;SDS011;14766;51.380;13.762;2023-08-20T04:51:44;11.23;;;10.23;;
27265;SDS011;14766;51.380;13.762;2023-08-20T04:54:11;11.27;;;9.68;;
27265;SDS011;14766;51.380;13.762;2023-08-20T04:56:38;10.40;;;9.50;;
27265;SDS011;14766;51.380;13.762;2023-08-20T04:59:05;10.55;;;9.65;;
27265;SDS011;14766;51.380;13.762;2023-08-20T05:01:50;10.13;;;9.13;;
27265;SDS011;14766;51.380;13.762;2023-08-20T05:04:32;10.20;;;9.07;;
27265;SDS011;14766;51.380;13.762;2023-08-20T05:07:00;9.85;;;8.95;;
27265;SDS011;14766;51.380;13.762;2023-08-20T05:09:29;9.85;;;8.90;;
27265;SDS011;14766;51.380;13.762;2023-08-20T05:11:56;10.07;;;8.55;;
27265;SDS011;14766;51.380;13.762;2023-08-20T05:14:24;10.25;;;7.97;;
27265;SDS011;14766;51.380;13.762;2023-08-20T05:16:52;8.13;;;7.35;;
27265;SDS011;14766;51.380;13.762;2023-08-20T05:19:20;9.02;;;8.13;;
27265;SDS011;14766;51.380;13.762;2023-08-20T05:21:48;8.88;;;8.07;;
27265;SDS011;14766;51.380;13.762;2023-08-20T05:24:15;9.02;;;7.93;;
27265;SDS011;14766;51.380;13.762;2023-08-20T05:26:42;8.25;;;7.47;;
27265;SDS011;14766;51.380;13.762;2023-08-20T05:29:09;8.43;;;7.63;;
27265;SDS011;14766;51.380;13.762;2023-08-20T05:31:37;8.88;;;8.02;;
27265;SDS011;14766;51.380;13.762;2023-08-20T05:34:05;9.50;;;7.75;;
27265;SDS011;14766;51.380;13.762;2023-08-20T05:36:32;9.07;;;7.90;;
27265;SDS011;14766;51.380;13.762;2023-08-20T05:39:00;8.95;;;8.15;;
27265;SDS011;14766;51.380;13.762;2023-08-20T05:41:28;8.85;;;7.72;;
27265;SDS011;14766;51.380;13.762;2023-08-20T05:43:55;9.50;;;7.97;;
27265;SDS011;14766;51.380;13.762;2023-08-20T05:46:22;9.20;;;8.25;;
27265;SDS011;14766;51.380;13.762;2023-08-20T05:48:49;7.93;;;7.22;;
27265;SDS011;14766;51.380;13.762;2023-08-20T05:51:16;8.93;;;7.93;;
27265;SDS011;14766;51.380;13.762;2023-08-20T05:53:43;9.73;;;7.10;;
27265;SDS011;14766;51.380;13.762;2023-08-20T05:56:11;8.05;;;7.25;;
27265;SDS011;14766;51.380;13.762;2023-08-20T05:58:37;9.43;;;7.90;;
27265;SDS011;14766;51.380;13.762;2023-08-20T06:01:04;7.78;;;7.07;;
27265;SDS011;14766;51.380;13.762;2023-08-20T06:03:32;8.27;;;7.47;;
27265;SDS011;14766;51.380;13.762;2023-08-20T06:05:58;7.82;;;6.90;;
27265;SDS011;14766;51.380;13.762;2023-08-20T06:08:30;8.00;;;7.03;;
27265;SDS011;14766;51.380;13.762;2023-08-20T06:10:58;9.68;;;7.45;;
27265;SDS011;14766;51.380;13.762;2023-08-20T06:13:25;10.57;;;7.40;;
27265;SDS011;14766;51.380;13.762;2023-08-20T06:15:52;7.57;;;6.85;;
27265;SDS011;14766;51.380;13.762;2023-08-20T06:18:19;7.50;;;6.70;;
27265;SDS011;14766;51.380;13.762;2023-08-20T06:20:47;7.72;;;6.93;;
27265;SDS011;14766;51.380;13.762;2023-08-20T06:23:15;7.65;;;6.85;;
27265;SDS011;14766;51.380;13.762;2023-08-20T06:26:02;8.07;;;7.20;;
27265;SDS011;14766;51.380;13.762;2023-08-20T06:28:29;7.53;;;6.82;;
27265;SDS011;14766;51.380;13.762;2023-08-20T06:30:57;7.35;;;6.65;;
27265;SDS011;14766;51.380;13.762;2023-08-20T06:33:24;7.35;;;6.65;;
27265;SDS011;14766;51.380;13.762;2023-08-20T06:35:51;7.22;;;6.53;;
27265;SDS011;14766;51.380;13.762;2023-08-20T06:38:18;7.95;;;7.03;;
27265;SDS011;14766;51.380;13.762;2023-08-20T06:40:47;7.13;;;6.43;;
27265;SDS011;14766;51.380;13.762;2023-08-20T06:43:14;9.40;;;6.97;;
27265;SDS011;14766;51.380;13.762;2023-08-20T06:45:41;7.53;;;6.72;;
27265;SDS011;14766;51.380;13.762;2023-08-20T06:48:08;7.00;;;6.40;;
27265;SDS011;14766;51.380;13.762;2023-08-20T06:50:36;7.28;;;6.57;;
27265;SDS011;14766;51.380;13.762;2023-08-20T06:53:04;7.78;;;7.00;;
27265;SDS011;14766;51.380;13.762;2023-08-20T06:55:32;7.95;;;6.97;;
27265;SDS011;14766;51.380;13.762;2023-08-20T06:57:59;7.35;;;6.60;;
27265;SDS011;14766;51.380;13.762;2023-08-20T07:00:26;6.75;;;6.05;;
27265;SDS011;14766;51.380;13.762;2023-08-20T07:02:54;7.32;;;6.53;;
27265;SDS011;14766;51.380;13.762;2023-08-20T07:05:21;7.88;;;7.15;;
27265;SDS011;14766;51.380;13.762;2023-08-20T07:07:48;8.18;;;7.38;;
27265;SDS011;14766;51.380;13.762;2023-08-20T07:10:15;7.68;;;6.95;;
27265;SDS011;14766;51.380;13.762;2023-08-20T07:12:42;7.95;;;7.15;;
27265;SDS011;14766;51.380;13.762;2023-08-20T07:15:09;9.05;;;7.10;;
27265;SDS011;14766;51.380;13.762;2023-08-20T07:17:36;7.78;;;7.03;;
27265;SDS011;14766;51.380;13.762;2023-08-20T07:20:05;8.15;;;7.32;;
27265;SDS011;14766;51.380;13.762;2023-08-20T07:22:32;8.45;;;7.47;;
27265;SDS011;14766;51.380;13.762;2023-08-20T07:24:59;8.88;;;6.80;;
27265;SDS011;14766;51.380;13.762;2023-08-20T07:27:26;8.10;;;7.32;;
27265;SDS011;14766;51.380;13.762;2023-08-20T07:29:53;8.10;;;7.32;;
27265;SDS011;14766;51.380;13.762;2023-08-20T07:32:21;8.40;;;7.60;;
27265;SDS011;14766;51.380;13.762;2023-08-20T07:34:48;8.00;;;7.20;;
27265;SDS011;14766;51.380;13.762;2023-08-20T07:37:17;8.52;;;7.63;;
27265;SDS011;14766;51.380;13.762;2023-08-20T07:39:47;8.10;;;7.28;;
27265;SDS011;14766;51.380;13.762;2023-08-20T07:42:14;9.73;;;7.82;;
27265;SDS011;14766;51.380;13.762;2023-08-20T07:44:41;7.82;;;6.97;;
27265;SDS011;14766;51.380;13.762;2023-08-20T07:47:08;8.43;;;7.63;;
27265;SDS011;14766;51.380;13.762;2023-08-20T07:49:35;8.20;;;7.40;;
27265;SDS011;14766;51.380;13.762;2023-08-20T07:52:02;8.20;;;7.40;;
27265;SDS011;14766;51.380;13.762;2023-08-20T07:54:31;8.38;;;7.45;;
27265;SDS011;14766;51.380;13.762;2023-08-20T07:56:58;9.48;;;7.70;;
27265;SDS011;14766;51.380;13.762;2023-08-20T07:59:26;8.75;;;7.57;;
27265;SDS011;14766;51.380;13.762;2023-08-20T08:01:55;8.43;;;7.50;;
27265;SDS011;14766;51.380;13.762;2023-08-20T08:04:22;9.63;;;7.60;;
27265;SDS011;14766;51.380;13.762;2023-08-20T08:06:49;8.65;;;7.85;;
27265;SDS011;14766;51.380;13.762;2023-08-20T08:09:17;8.18;;;7.38;;
27265;SDS011;14766;51.380;13.762;2023-08-20T08:11:48;8.90;;;7.85;;
27265;SDS011;14766;51.380;13.762;2023-08-20T08:14:15;8.23;;;7.25;;
27265;SDS011;14766;51.380;13.762;2023-08-20T08:16:43;8.90;;;8.00;;
27265;SDS011;14766;51.380;13.762;2023-08-20T08:19:13;8.63;;;7.65;;
27265;SDS011;14766;51.380;13.762;2023-08-20T08:21:42;9.70;;;8.23;;
27265;SDS011;14766;51.380;13.762;2023-08-20T08:24:10;9.38;;;8.38;;
27265;SDS011;14766;51.380;13.762;2023-08-20T08:26:38;9.45;;;8.18;;
27265;SDS011;14766;51.380;13.762;2023-08-20T08:29:06;9.57;;;8.60;;
27265;SDS011;14766;51.380;13.762;2023-08-20T08:31:34;10.50;;;9.27;;
27265;SDS011;14766;51.380;13.762;2023-08-20T08:34:01;8.65;;;7.85;;
27265;SDS011;14766;51.380;13.762;2023-08-20T08:36:30;8.63;;;7.63;;
27265;SDS011;14766;51.380;13.762;2023-08-20T08:38:57;9.88;;;8.45;;
27265;SDS011;14766;51.380;13.762;2023-08-20T08:41:24;12.30;;;9.60;;
27265;SDS011;14766;51.380;13.762;2023-08-20T08:43:55;9.77;;;8.88;;
27265;SDS011;14766;51.380;13.762;2023-08-20T08:46:23;10.45;;;9.00;;
27265;SDS011;14766;51.380;13.762;2023-08-20T08:48:51;10.52;;;9.20;;
27265;SDS011;14766;51.380;13.762;2023-08-20T08:51:19;10.23;;;9.23;;
27265;SDS011;14766;51.380;13.762;2023-08-20T08:53:46;11.35;;;8.82;;
27265;SDS011;14766;51.380;13.762;2023-08-20T08:56:14;11.52;;;10.38;;
27265;SDS011;14766;51.380;13.762;2023-08-20T08:58:41;11.07;;;9.77;;
27265;SDS011;14766;51.380;13.762;2023-08-20T09:01:08;10.63;;;9.63;;
27265;SDS011;14766;51.380;13.762;2023-08-20T09:03:35;11.70;;;9.63;;
27265;SDS011;14766;51.380;13.762;2023-08-20T09:06:02;10.25;;;9.13;;
27265;SDS011;14766;51.380;13.762;2023-08-20T09:08:35;10.90;;;9.75;;
27265;SDS011;14766;51.380;13.762;2023-08-20T09:11:02;11.13;;;10.02;;
27265;SDS011;14766;51.380;13.762;2023-08-20T09:13:33;12.82;;;9.48;;
27265;SDS011;14766;51.380;13.762;2023-08-20T09:16:10;13.00;;;10.00;;
27265;SDS011;14766;51.380;13.762;2023-08-20T09:18:43;16.83;;;11.40;;
27265;SDS011;14766;51.380;13.762;2023-08-20T09:21:12;11.10;;;9.98;;
27265;SDS011;14766;51.380;13.762;2023-08-20T09:23:40;11.15;;;10.05;;
27265;SDS011;14766;51.380;13.762;2023-08-20T09:26:11;11.25;;;10.05;;
27265;SDS011;14766;51.380;13.762;2023-08-20T09:28:41;11.68;;;10.25;;
27265;SDS011;14766;51.380;13.762;2023-08-20T09:31:11;10.85;;;9.75;;
27265;SDS011;14766;51.380;13.762;2023-08-20T09:33:51;10.60;;;9.50;;
27265;SDS011;14766;51.380;13.762;2023-08-20T09:36:31;11.00;;;9.90;;
27265;SDS011;14766;51.380;13.762;2023-08-20T09:39:01;10.25;;;9.20;;
27265;SDS011;14766;51.380;13.762;2023-08-20T09:41:29;10.55;;;9.55;;
27265;SDS011;14766;51.380;13.762;2023-08-20T09:44:00;10.32;;;9.25;;
27265;SDS011;14766;51.380;13.762;2023-08-20T09:46:31;10.02;;;9.13;;
27265;SDS011;14766;51.380;13.762;2023-08-20T09:48:59;10.30;;;9.23;;
27265;SDS011;14766;51.380;13.762;2023-08-20T09:51:27;9.02;;;8.23;;
27265;SDS011;14766;51.380;13.762;2023-08-20T09:54:16;9.05;;;8.15;;
27265;SDS011;14766;51.380;13.762;2023-08-20T09:56:44;9.38;;;8.48;;
27265;SDS011;14766;51.380;13.762;2023-08-20T09:59:18;10.07;;;9.00;;
27265;SDS011;14766;51.380;13.762;2023-08-20T10:01:45;9.60;;;8.60;;
27265;SDS011;14766;51.380;13.762;2023-08-20T10:04:14;9.90;;;9.00;;
27265;SDS011;14766;51.380;13.762;2023-08-20T10:06:43;8.50;;;7.47;;
27265;SDS011;14766;51.380;13.762;2023-08-20T10:09:10;8.75;;;7.95;;
27265;SDS011;14766;51.380;13.762;2023-08-20T10:11:37;8.32;;;7.53;;
27265;SDS011;14766;51.380;13.762;2023-08-20T10:14:06;8.02;;;7.32;;
27265;SDS011;14766;51.380;13.762;2023-08-20T10:16:33;7.75;;;7.03;;
27265;SDS011;14766;51.380;13.762;2023-08-20T10:19:03;8.30;;;7.60;;
27265;SDS011;14766;51.380;13.762;2023-08-20T10:21:32;9.77;;;7.95;;
27265;SDS011;14766;51.380;13.762;2023-08-20T10:24:03;8.73;;;7.78;;
27265;SDS011;14766;51.380;13.762;2023-08-20T10:26:33;8.35;;;7.55;;
27265;SDS011;14766;51.380;13.762;2023-08-20T10:32:09;7.57;;;6.88;;
27265;SDS011;14766;51.380;13.762;2023-08-20T10:34:38;8.13;;;7.25;;
27265;SDS011;14766;51.380;13.762;2023-08-20T10:37:13;8.07;;;7.30;;
27265;SDS011;14766;51.380;13.762;2023-08-20T10:39:41;8.32;;;7.47;;
27265;SDS011;14766;51.380;13.762;2023-08-20T10:42:21;7.28;;;6.38;;
27265;SDS011;14766;51.380;13.762;2023-08-20T10:47:42;7.75;;;6.95;;
27265;SDS011;14766;51.380;13.762;2023-08-20T10:50:16;7.53;;;6.80;;
27265;SDS011;14766;51.380;13.762;2023-08-20T10:52:48;8.07;;;7.28;;
27265;SDS011;14766;51.380;13.762;2023-08-20T10:55:24;8.02;;;7.20;;
27265;SDS011;14766;51.380;13.762;2023-08-20T10:57:56;8.15;;;7.35;;
27265;SDS011;14766;51.380;13.762;2023-08-20T11:00:26;8.05;;;7.32;;
27265;SDS011;14766;51.380;13.762;2023-08-20T11:02:54;7.90;;;7.10;;
27265;SDS011;14766;51.380;13.762;2023-08-20T11:05:22;8.70;;;7.90;;
27265;SDS011;14766;51.380;13.762;2023-08-20T11:07:50;7.63;;;6.82;;
27265;SDS011;14766;51.380;13.762;2023-08-20T11:10:17;7.65;;;6.95;;
27265;SDS011;14766;51.380;13.762;2023-08-20T11:12:47;7.63;;;6.93;;
27265;SDS011;14766;51.380;13.762;2023-08-20T11:15:14;8.63;;;7.13;;
27265;SDS011;14766;51.380;13.762;2023-08-20T11:17:43;8.65;;;6.90;;
27265;SDS011;14766;51.380;13.762;2023-08-20T11:20:16;7.55;;;6.85;;
27265;SDS011;14766;51.380;13.762;2023-08-20T11:22:44;7.32;;;6.63;;
27265;SDS011;14766;51.380;13.762;2023-08-20T11:25:11;7.22;;;6.55;;
27265;SDS011;14766;51.380;13.762;2023-08-20T11:27:42;7.00;;;6.40;;
27265;SDS011;14766;51.380;13.762;2023-08-20T11:30:10;6.68;;;6.07;;
27265;SDS011;14766;51.380;13.762;2023-08-20T11:32:40;6.78;;;6.18;;
27265;SDS011;14766;51.380;13.762;2023-08-20T11:35:12;6.35;;;5.70;;
27265;SDS011;14766;51.380;13.762;2023-08-20T11:37:39;6.13;;;5.63;;
27265;SDS011;14766;51.380;13.762;2023-08-20T11:40:07;6.75;;;6.15;;
27265;SDS011;14766;51.380;13.762;2023-08-20T11:42:35;6.68;;;6.00;;
27265;SDS011;14766;51.380;13.762;2023-08-20T11:45:03;6.47;;;5.88;;
27265;SDS011;14766;51.380;13.762;2023-08-20T11:47:38;6.45;;;5.85;;
27265;SDS011;14766;51.380;13.762;2023-08-20T11:52:33;5.68;;;5.03;;
27265;SDS011;14766;51.380;13.762;2023-08-20T11:55:02;6.57;;;5.60;;
27265;SDS011;14766;51.380;13.762;2023-08-20T11:57:30;6.30;;;5.55;;
27265;SDS011;14766;51.380;13.762;2023-08-20T12:00:01;5.68;;;5.15;;
27265;SDS011;14766;51.380;13.762;2023-08-20T12:02:43;5.65;;;5.03;;
27265;SDS011;14766;51.380;13.762;2023-08-20T12:05:19;4.82;;;4.43;;
27265;SDS011;14766;51.380;13.762;2023-08-20T12:07:56;5.05;;;4.63;;
27265;SDS011;14766;51.380;13.762;2023-08-20T12:10:26;5.22;;;4.72;;
27265;SDS011;14766;51.380;13.762;2023-08-20T12:12:55;5.10;;;4.63;;
27265;SDS011;14766;51.380;13.762;2023-08-20T12:15:23;5.25;;;4.78;;
27265;SDS011;14766;51.380;13.762;2023-08-20T12:17:59;5.18;;;4.78;;
27265;SDS011;14766;51.380;13.762;2023-08-20T12:20:29;5.38;;;4.88;;
27265;SDS011;14766;51.380;13.762;2023-08-20T12:22:58;4.90;;;4.50;;
27265;SDS011;14766;51.380;13.762;2023-08-20T12:25:29;5.60;;;5.10;;
27265;SDS011;14766;51.380;13.762;2023-08-20T12:27:59;5.35;;;4.43;;
27265;SDS011;14766;51.380;13.762;2023-08-20T12:30:32;5.32;;;4.82;;
27265;SDS011;14766;51.380;13.762;2023-08-20T12:33:05;5.15;;;4.75;;
27265;SDS011;14766;51.380;13.762;2023-08-20T12:35:34;5.40;;;4.90;;
27265;SDS011;14766;51.380;13.762;2023-08-20T12:38:02;5.40;;;5.00;;
27265;SDS011;14766;51.380;13.762;2023-08-20T12:40:30;5.72;;;5.22;;
27265;SDS011;14766;51.380;13.762;2023-08-20T12:42:57;5.38;;;4.88;;
27265;SDS011;14766;51.380;13.762;2023-08-20T12:45:24;7.35;;;4.60;;
27265;SDS011;14766;51.380;13.762;2023-08-20T12:47:51;5.22;;;4.60;;
27265;SDS011;14766;51.380;13.762;2023-08-20T12:50:30;4.68;;;4.13;;
27265;SDS011;14766;51.380;13.762;2023-08-20T12:52:58;5.63;;;3.88;;
27265;SDS011;14766;51.380;13.762;2023-08-20T12:55:25;4.68;;;4.25;;
27265;SDS011;14766;51.380;13.762;2023-08-20T12:57:56;5.05;;;4.40;;
27265;SDS011;14766;51.380;13.762;2023-08-20T13:00:26;4.90;;;4.40;;
27265;SDS011;14766;51.380;13.762;2023-08-20T13:02:54;6.05;;;4.57;;
27265;SDS011;14766;51.380;13.762;2023-08-20T13:05:22;4.93;;;3.92;;
27265;SDS011;14766;51.380;13.762;2023-08-20T13:07:50;5.05;;;3.90;;
27265;SDS011;14766;51.380;13.762;2023-08-20T13:10:19;4.20;;;3.50;;
27265;SDS011;14766;51.380;13.762;2023-08-20T13:12:53;4.57;;;4.18;;
27265;SDS011;14766;51.380;13.762;2023-08-20T13:15:22;3.75;;;3.40;;
27265;SDS011;14766;51.380;13.762;2023-08-20T13:17:52;4.57;;;3.47;;
27265;SDS011;14766;51.380;13.762;2023-08-20T13:20:20;3.60;;;3.30;;
27265;SDS011;14766;51.380;13.762;2023-08-20T13:22:51;3.40;;;2.85;;
27265;SDS011;14766;51.380;13.762;2023-08-20T13:25:19;3.55;;;3.25;;
27265;SDS011;14766;51.380;13.762;2023-08-20T13:27:49;4.50;;;3.60;;
27265;SDS011;14766;51.380;13.762;2023-08-20T13:30:17;4.28;;;3.78;;
27265;SDS011;14766;51.380;13.762;2023-08-20T13:32:47;4.45;;;3.60;;
27265;SDS011;14766;51.380;13.762;2023-08-20T13:35:16;3.80;;;3.40;;
27265;SDS011;14766;51.380;13.762;2023-08-20T13:37:43;4.18;;;3.60;;
27265;SDS011;14766;51.380;13.762;2023-08-20T13:40:13;4.75;;;3.60;;
27265;SDS011;14766;51.380;13.762;2023-08-20T13:42:41;3.80;;;3.50;;
27265;SDS011;14766;51.380;13.762;2023-08-20T13:45:09;3.70;;;3.35;;
27265;SDS011;14766;51.380;13.762;2023-08-20T13:47:36;4.60;;;4.20;;
27265;SDS011;14766;51.380;13.762;2023-08-20T13:50:04;5.82;;;4.15;;
27265;SDS011;14766;51.380;13.762;2023-08-20T13:52:32;5.88;;;4.18;;
27265;SDS011;14766;51.380;13.762;2023-08-20T13:54:59;7.13;;;4.25;;
27265;SDS011;14766;51.380;13.762;2023-08-20T13:57:27;4.30;;;3.90;;
27265;SDS011;14766;51.380;13.762;2023-08-20T13:59:54;5.32;;;3.83;;
27265;SDS011;14766;51.380;13.762;2023-08-20T14:02:21;5.03;;;4.25;;
27265;SDS011;14766;51.380;13.762;2023-08-20T14:04:48;4.78;;;4.15;;
27265;SDS011;14766;51.380;13.762;2023-08-20T14:07:15;6.85;;;4.30;;
27265;SDS011;14766;51.380;13.762;2023-08-20T14:09:44;4.88;;;4.35;;
27265;SDS011;14766;51.380;13.762;2023-08-20T14:12:11;4.43;;;4.00;;
27265;SDS011;14766;51.380;13.762;2023-08-20T14:14:38;4.65;;;4.28;;
27265;SDS011;14766;51.380;13.762;2023-08-20T14:17:05;5.22;;;4.72;;
27265;SDS011;14766;51.380;13.762;2023-08-20T14:19:32;4.82;;;4.43;;
27265;SDS011;14766;51.380;13.762;2023-08-20T14:21:59;5.03;;;4.53;;
27265;SDS011;14766;51.380;13.762;2023-08-20T14:24:26;4.90;;;4.50;;
27265;SDS011;14766;51.380;13.762;2023-08-20T14:26:53;4.95;;;4.55;;
27265;SDS011;14766;51.380;13.762;2023-08-20T14:29:20;4.70;;;4.30;;
27265;SDS011;14766;51.380;13.762;2023-08-20T14:31:47;5.32;;;4.63;;
27265;SDS011;14766;51.380;13.762;2023-08-20T14:34:16;5.22;;;4.82;;
27265;SDS011;14766;51.380;13.762;2023-08-20T14:36:46;5.28;;;4.78;;
27265;SDS011;14766;51.380;13.762;2023-08-20T14:39:13;5.10;;;4.70;;
27265;SDS011;14766;51.380;13.762;2023-08-20T14:41:40;6.75;;;4.72;;
27265;SDS011;14766;51.380;13.762;2023-08-20T14:44:07;5.05;;;4.55;;
27265;SDS011;14766;51.380;13.762;2023-08-20T14:46:34;5.05;;;4.43;;
27265;SDS011;14766;51.380;13.762;2023-08-20T14:49:01;4.60;;;4.20;;
27265;SDS011;14766;51.380;13.762;2023-08-20T14:51:28;5.00;;;4.60;;
27265;SDS011;14766;51.380;13.762;2023-08-20T14:53:55;4.90;;;4.47;;